Indio, CA (92201)

4:08 AM PST on December 11, 2016 (GMT -0800)
Sun Resorts | | Change Station

Elev 49 ft 33.70 °N, 116.27 °W | Updated 34 seconds ago

Partly Cloudy
Partly Cloudy
56.5 °F
Feels Like 56.5 °F
N
0.0
Wind Variable Wind from West

Today
High -- | Low -- °F
--% Chance of Precip.
Yesterday
High -- | Low -- °F
Precip. -- in
Pressure 29.96 in
Visibility 10.0 miles
Clouds Clear
Dew Point 44 °F
Humidity 64%
Rainfall 0.00 in
Snow Depth Not available.
6:39 AM 4:37 PM
Waxing Gibbous, 91% visible
METAR KTRM 111152Z AUTO 00000KT 10SM CLR 11/05 A2996 RMK AO2 SLP146 T01110050 10133 20083 58005
Pressure 29.96 in
Visibility 10.0 miles
Clouds Clear
Dew Point 44 °F
Humidity 64%
Rainfall 0.00 in
Snow Depth Not available.
6:39 AM 4:37 PM
Waxing Gibbous, 91% visible
METAR KTRM 111152Z AUTO 00000KT 10SM CLR 11/05 A2996 RMK AO2 SLP146 T01110050 10133 20083 58005

10-Day Weather Forecast

Almanac

Astronomy

Dec. 11, 2016 Rise Set
Actual Time
Civil Twilight
Nautical Twilight
Astronomical Twilight
Moon
Length of Visible Light
Length of Day
Tomorrow will be .
, % of the Moon is Illuminated

Today's Extremes

State Highs State Lows

Community

WunderPhotos

Upload Photos

1,956,710 photos uploaded!

WunderBlog® & News

Nearby

Air Quality

  Air Quality AQ Index Pollutant
Not available.

Snow Depth

Station Depth Elevation

Earthquake Activity

City Distance Mag. Time & Date
Minimum magnitude displayed is 2.5.

Coastal Water Temperatures

Place Temperature

Stations

Nearby Weather Stations

Station Location Temp. Windchill Dew Point Humidity Wind Precip. Elev Updated Type
                   

Watches & Warnings

There are currently no watches in effect.